createdAt,value
2022-11-07T00:01:48.591Z,8.79
2022-11-07T00:04:14.981Z,8.95
2022-11-07T00:06:41.434Z,8.98
2022-11-07T00:09:07.791Z,8.94
2022-11-07T00:11:34.102Z,9.05
2022-11-07T00:14:00.451Z,9.06
2022-11-07T00:16:28.730Z,9.01
2022-11-07T00:18:55.461Z,9.09
2022-11-07T00:21:21.806Z,9.02
2022-11-07T00:23:48.151Z,9.02
2022-11-07T00:26:14.573Z,9.14
2022-11-07T00:28:41.459Z,9.10
2022-11-07T00:31:08.011Z,9.07
2022-11-07T00:33:34.360Z,9.15
2022-11-07T00:36:00.682Z,9.11
2022-11-07T00:38:27.054Z,9.14
2022-11-07T00:40:56.813Z,9.12
2022-11-07T00:43:23.208Z,9.08
2022-11-07T00:45:49.530Z,9.16
2022-11-07T00:48:15.882Z,9.02
2022-11-07T00:50:42.197Z,9.00
2022-11-07T00:53:08.581Z,9.21
2022-11-07T00:55:34.968Z,9.16
2022-11-07T00:58:01.328Z,9.14
2022-11-07T01:00:27.646Z,9.07
2022-11-07T01:03:13.701Z,9.09
2022-11-07T01:05:40.274Z,9.16
2022-11-07T01:08:06.635Z,9.14
2022-11-07T01:10:33.013Z,9.21
2022-11-07T01:12:59.351Z,9.21
2022-11-07T01:15:25.674Z,9.11
2022-11-07T01:17:52.005Z,9.11
2022-11-07T01:20:18.352Z,9.12
2022-11-07T01:22:44.665Z,9.22
2022-11-07T01:25:11.081Z,9.29
2022-11-07T01:27:37.503Z,9.21
2022-11-07T01:30:05.019Z,9.24
2022-11-07T01:32:31.431Z,9.32
2022-11-07T01:34:57.765Z,9.30
2022-11-07T01:37:24.084Z,9.27
2022-11-07T01:39:50.439Z,9.33
2022-11-07T01:42:16.771Z,9.34
2022-11-07T01:44:48.960Z,9.40
2022-11-07T01:47:15.291Z,9.51
2022-11-07T01:49:41.621Z,9.47
2022-11-07T01:52:08.472Z,9.47
2022-11-07T01:55:07.138Z,9.37
2022-11-07T01:57:37.427Z,9.37
2022-11-07T02:00:05.349Z,9.51
2022-11-07T02:02:31.763Z,9.51
2022-11-07T02:04:58.408Z,9.52
2022-11-07T02:07:24.778Z,9.40
2022-11-07T02:09:51.418Z,9.46
2022-11-07T02:12:17.727Z,9.47
2022-11-07T02:14:44.178Z,9.59
2022-11-07T02:17:10.856Z,9.59
2022-11-07T02:19:39.048Z,9.54
2022-11-07T02:22:05.327Z,9.54
2022-11-07T02:24:32.231Z,9.51
2022-11-07T02:26:58.598Z,9.54
2022-11-07T02:29:24.945Z,9.64
2022-11-07T02:32:04.239Z,9.57
2022-11-07T02:34:30.688Z,9.64
2022-11-07T02:36:57.014Z,9.60
2022-11-07T02:39:23.356Z,9.64
2022-11-07T02:41:49.766Z,9.65
2022-11-07T02:44:16.130Z,9.63
2022-11-07T02:46:42.467Z,9.58
2022-11-07T02:49:08.876Z,9.66
2022-11-07T02:51:35.251Z,9.62
2022-11-07T02:54:01.584Z,9.59
2022-11-07T02:56:27.921Z,9.43
2022-11-07T02:58:54.248Z,9.34
2022-11-07T03:01:20.747Z,9.50
2022-11-07T03:03:47.859Z,9.55
2022-11-07T03:06:15.798Z,9.45
2022-11-07T03:08:43.110Z,9.44
2022-11-07T03:11:09.487Z,9.61
2022-11-07T03:13:35.885Z,9.64
2022-11-07T03:16:06.767Z,9.59
2022-11-07T03:18:33.795Z,9.55
2022-11-07T03:21:00.110Z,9.51
2022-11-07T03:23:26.439Z,9.49
2022-11-07T03:25:52.787Z,9.44
2022-11-07T03:28:19.112Z,9.53
2022-11-07T03:30:45.471Z,9.50
2022-11-07T03:33:12.049Z,9.59
2022-11-07T03:35:38.534Z,9.60
2022-11-07T03:38:04.883Z,9.52
2022-11-07T03:40:31.231Z,9.46
2022-11-07T03:42:57.559Z,9.55
2022-11-07T03:45:23.896Z,9.46
2022-11-07T03:47:50.254Z,9.57
2022-11-07T03:50:17.590Z,9.64
2022-11-07T03:52:44.027Z,9.59
2022-11-07T03:55:10.820Z,9.57
2022-11-07T03:57:37.482Z,9.52
2022-11-07T04:00:04.919Z,9.47
2022-11-07T04:02:31.314Z,9.47
2022-11-07T04:04:58.198Z,9.38
2022-11-07T04:07:24.542Z,9.42
2022-11-07T04:09:50.928Z,9.40
2022-11-07T04:12:35.913Z,9.35
2022-11-07T04:15:20.902Z,9.35
2022-11-07T04:17:47.292Z,9.45
2022-11-07T04:20:13.679Z,9.35
2022-11-07T04:22:40.072Z,9.33
2022-11-07T04:25:06.724Z,9.29
2022-11-07T04:27:47.021Z,9.28
2022-11-07T04:30:26.691Z,9.32
2022-11-07T04:32:54.134Z,9.35
2022-11-07T04:35:20.815Z,9.31
2022-11-07T04:37:47.175Z,9.36
2022-11-07T04:40:13.606Z,9.28
2022-11-07T04:42:39.932Z,9.25
2022-11-07T04:45:06.505Z,9.22
2022-11-07T04:47:34.306Z,9.33
2022-11-07T04:50:05.372Z,9.25
2022-11-07T04:52:31.698Z,9.20
2022-11-07T04:54:58.028Z,9.37
2022-11-07T04:57:24.344Z,9.21
2022-11-07T04:59:50.676Z,9.16
2022-11-07T05:02:17.171Z,9.11
2022-11-07T05:04:43.550Z,9.19
2022-11-07T05:07:10.025Z,9.22
2022-11-07T05:09:36.415Z,9.22
2022-11-07T05:12:03.971Z,9.32
2022-11-07T05:14:33.371Z,9.25
2022-11-07T05:16:59.769Z,9.27
2022-11-07T05:19:26.377Z,9.34
2022-11-07T05:22:12.670Z,9.38
2022-11-07T05:24:39.020Z,9.37
2022-11-07T05:27:06.065Z,9.41
2022-11-07T05:29:32.494Z,9.35
2022-11-07T05:31:58.811Z,9.37
2022-11-07T05:34:25.167Z,9.38
2022-11-07T05:36:51.550Z,9.36
2022-11-07T05:39:17.898Z,9.43
2022-11-07T05:41:44.238Z,9.42
2022-11-07T05:44:10.626Z,9.45
2022-11-07T05:46:36.950Z,9.37
2022-11-07T05:49:03.300Z,9.40
2022-11-07T05:51:29.640Z,9.43
2022-11-07T05:53:55.965Z,9.40
2022-11-07T05:56:22.289Z,9.42
2022-11-07T05:58:48.629Z,9.37
2022-11-07T06:01:14.951Z,9.35
2022-11-07T06:03:41.272Z,9.35
2022-11-07T06:06:07.595Z,9.36
2022-11-07T06:08:33.935Z,9.32
2022-11-07T06:11:03.769Z,9.30
2022-11-07T06:13:30.078Z,9.30
2022-11-07T06:15:56.411Z,9.36
2022-11-07T06:18:22.762Z,9.33
2022-11-07T06:20:49.097Z,9.44
2022-11-07T06:23:15.944Z,9.40
2022-11-07T06:25:42.618Z,9.42
2022-11-07T06:28:09.621Z,9.41
2022-11-07T06:30:35.954Z,9.46
2022-11-07T06:33:02.711Z,9.46
2022-11-07T06:35:29.433Z,9.46
2022-11-07T06:37:55.761Z,9.47
2022-11-07T06:40:22.107Z,9.44
2022-11-07T06:42:48.436Z,9.47
2022-11-07T06:45:14.822Z,9.47
2022-11-07T06:47:41.186Z,9.46
2022-11-07T06:50:07.733Z,9.38
2022-11-07T06:52:34.045Z,9.38
2022-11-07T06:55:00.387Z,9.39
2022-11-07T06:57:26.757Z,9.40
2022-11-07T06:59:53.089Z,9.34
2022-11-07T07:02:37.253Z,9.36
2022-11-07T07:05:06.006Z,9.38
2022-11-07T07:07:32.324Z,9.45
2022-11-07T07:09:58.693Z,9.48
2022-11-07T07:12:26.507Z,9.52
2022-11-07T07:14:52.855Z,9.59
2022-11-07T07:17:19.249Z,9.63
2022-11-07T07:19:45.578Z,9.66
2022-11-07T07:22:14.998Z,9.70
2022-11-07T07:24:41.329Z,9.61
2022-11-07T07:27:07.695Z,9.61
2022-11-07T07:29:34.070Z,9.62
2022-11-07T07:32:00.386Z,9.59
2022-11-07T07:34:26.719Z,9.65
2022-11-07T07:36:53.622Z,9.69
2022-11-07T07:39:19.943Z,9.77
2022-11-07T07:41:48.089Z,9.72
2022-11-07T07:44:14.423Z,9.63
2022-11-07T07:46:40.760Z,9.65
2022-11-07T07:49:08.079Z,9.56
2022-11-07T07:51:34.407Z,9.58
2022-11-07T07:54:00.824Z,9.61
2022-11-07T07:56:27.333Z,9.59
2022-11-07T07:58:53.640Z,9.68
2022-11-07T08:01:20.018Z,9.72
2022-11-07T08:04:00.855Z,9.79
2022-11-07T08:06:28.050Z,9.74
2022-11-07T08:08:54.363Z,9.84
2022-11-07T08:11:20.720Z,9.92
2022-11-07T08:13:47.058Z,10.05
2022-11-07T08:16:13.393Z,10.10
2022-11-07T08:18:42.755Z,10.12
2022-11-07T08:21:09.204Z,10.19
2022-11-07T08:23:35.773Z,10.18
2022-11-07T08:26:04.690Z,10.20
2022-11-07T08:28:32.205Z,10.29
2022-11-07T08:31:00.310Z,10.25
2022-11-07T08:33:26.703Z,10.24
2022-11-07T08:35:56.328Z,10.23
2022-11-07T08:38:23.014Z,10.18
2022-11-07T08:40:51.167Z,10.18
2022-11-07T08:43:18.503Z,10.20
2022-11-07T08:45:45.533Z,10.19
2022-11-07T08:48:11.858Z,10.18
2022-11-07T08:50:38.244Z,10.29
2022-11-07T08:53:04.563Z,10.26
2022-11-07T08:55:30.898Z,10.37
2022-11-07T08:58:00.892Z,10.34
2022-11-07T09:00:27.309Z,10.36
2022-11-07T09:05:40.125Z,10.50
2022-11-07T09:08:06.616Z,10.63
2022-11-07T09:10:32.944Z,10.65
2022-11-07T09:12:59.269Z,10.69
2022-11-07T09:15:25.940Z,10.70
2022-11-07T09:17:52.554Z,10.64
2022-11-07T09:20:19.810Z,10.66
2022-11-07T09:22:46.143Z,10.74
2022-11-07T09:25:12.526Z,10.75
2022-11-07T09:27:38.887Z,10.77
2022-11-07T09:30:05.381Z,10.84
2022-11-07T09:32:44.503Z,10.92
2022-11-07T09:35:11.854Z,11.00
2022-11-07T09:37:39.129Z,11.05
2022-11-07T09:40:25.823Z,11.11
2022-11-07T09:42:52.106Z,11.12
2022-11-07T09:45:18.468Z,11.19
2022-11-07T09:47:48.514Z,11.16
2022-11-07T09:50:16.131Z,11.25
2022-11-07T09:52:45.637Z,11.31
2022-11-07T09:55:14.911Z,11.34
2022-11-07T09:57:41.290Z,11.33
2022-11-07T10:00:11.392Z,11.42
2022-11-07T10:02:43.724Z,11.44
2022-11-07T10:05:12.771Z,11.38
2022-11-07T10:07:41.758Z,11.42
2022-11-07T10:10:17.257Z,11.38
2022-11-07T10:12:46.636Z,11.47
2022-11-07T10:15:27.949Z,11.61
2022-11-07T10:17:57.405Z,11.57
2022-11-07T10:20:29.749Z,11.68
2022-11-07T10:22:59.091Z,11.77
2022-11-07T10:25:35.535Z,11.78
2022-11-07T10:28:08.057Z,11.86
2022-11-07T10:30:34.391Z,11.87
2022-11-07T10:33:10.706Z,11.95
2022-11-07T10:35:42.646Z,12.00
2022-11-07T10:38:35.839Z,12.06
2022-11-07T10:41:02.641Z,12.13
2022-11-07T10:43:30.128Z,12.18
2022-11-07T10:45:56.475Z,12.28
2022-11-07T10:48:22.804Z,12.35
2022-11-07T10:50:52.806Z,12.57
2022-11-07T10:53:19.699Z,12.58
2022-11-07T10:55:47.391Z,12.66
2022-11-07T10:58:21.014Z,12.62
2022-11-07T11:01:02.785Z,12.59
2022-11-07T11:03:43.712Z,12.66
2022-11-07T11:06:20.305Z,12.58
2022-11-07T11:08:46.971Z,12.63
2022-11-07T11:11:17.301Z,12.63
2022-11-07T11:13:43.637Z,12.80
2022-11-07T11:16:16.079Z,12.73
2022-11-07T11:18:49.456Z,12.74
2022-11-07T11:21:15.781Z,12.93
2022-11-07T11:23:42.795Z,12.82
2022-11-07T11:26:14.179Z,12.88
2022-11-07T11:29:06.885Z,12.78
2022-11-07T11:31:34.875Z,12.76
2022-11-07T11:34:14.715Z,12.74
2022-11-07T11:36:43.017Z,12.70
2022-11-07T11:39:16.290Z,12.67
2022-11-07T11:41:53.734Z,12.62
2022-11-07T11:44:30.170Z,12.61
2022-11-07T11:47:05.783Z,12.60
2022-11-07T11:49:34.160Z,12.71
2022-11-07T11:52:07.312Z,12.72
2022-11-07T11:54:33.631Z,12.65
2022-11-07T11:57:08.352Z,12.62
2022-11-07T11:59:37.660Z,12.60
2022-11-07T12:02:22.964Z,12.64
2022-11-07T12:04:58.632Z,12.64
2022-11-07T12:07:24.939Z,12.62
2022-11-07T12:10:06.065Z,12.70
2022-11-07T12:12:38.566Z,12.65
2022-11-07T12:15:23.892Z,12.63
2022-11-07T12:17:52.674Z,12.59
2022-11-07T12:20:30.015Z,12.50
2022-11-07T12:23:11.595Z,12.47
2022-11-07T12:25:46.284Z,12.48
2022-11-07T12:28:22.092Z,12.46
2022-11-07T12:30:48.398Z,12.54
2022-11-07T12:33:18.800Z,12.51
2022-11-07T12:35:45.402Z,12.52
2022-11-07T12:38:30.122Z,12.53
2022-11-07T12:41:05.794Z,12.52
2022-11-07T12:43:32.075Z,12.49
2022-11-07T12:46:08.859Z,12.47
2022-11-07T12:48:50.606Z,12.39
2022-11-07T12:51:20.855Z,12.41
2022-11-07T12:54:05.678Z,12.29
2022-11-07T12:56:32.973Z,12.18
2022-11-07T12:58:59.562Z,12.21
2022-11-07T13:01:27.808Z,12.20
2022-11-07T13:03:57.394Z,11.90
2022-11-07T13:06:26.655Z,11.99
2022-11-07T13:09:09.239Z,11.85
2022-11-07T13:11:42.456Z,11.87
2022-11-07T13:14:23.950Z,11.82
2022-11-07T13:16:52.154Z,11.81
2022-11-07T13:19:32.974Z,11.71
2022-11-07T13:22:00.638Z,11.68
2022-11-07T13:24:26.963Z,11.55
2022-11-07T13:26:53.323Z,11.43
2022-11-07T13:29:23.646Z,11.45
2022-11-07T13:31:53.389Z,11.53
2022-11-07T13:34:19.721Z,11.33
2022-11-07T13:36:46.283Z,11.32
2022-11-07T13:39:13.090Z,11.31
2022-11-07T13:41:39.738Z,11.34
2022-11-07T13:44:06.549Z,11.32
2022-11-07T13:46:41.729Z,11.32
2022-11-07T13:49:11.992Z,11.40
2022-11-07T13:51:40.765Z,11.39
2022-11-07T13:54:13.239Z,11.41
2022-11-07T13:56:50.145Z,11.42
2022-11-07T13:59:20.912Z,11.35
2022-11-07T14:01:47.347Z,11.31
2022-11-07T14:04:17.254Z,11.29
2022-11-07T14:06:43.625Z,11.31
2022-11-07T14:09:11.597Z,11.31
2022-11-07T14:11:38.082Z,11.35
2022-11-07T14:14:06.071Z,11.43
2022-11-07T14:16:32.491Z,11.44
2022-11-07T14:18:58.774Z,11.41
2022-11-07T14:21:28.208Z,11.34
2022-11-07T14:23:54.558Z,11.30
2022-11-07T14:26:28.242Z,11.35
2022-11-07T14:28:56.745Z,11.37
2022-11-07T14:31:27.196Z,11.31
2022-11-07T14:33:58.068Z,11.28
2022-11-07T14:36:24.501Z,11.26
2022-11-07T14:38:52.082Z,11.25
2022-11-07T14:41:18.581Z,11.13
2022-11-07T14:43:45.186Z,11.13
2022-11-07T14:46:14.190Z,11.13
2022-11-07T14:48:40.907Z,11.12
2022-11-07T14:51:07.244Z,11.16
2022-11-07T14:53:36.110Z,11.22
2022-11-07T14:56:03.659Z,11.18
2022-11-07T14:58:30.445Z,11.17
2022-11-07T15:00:57.706Z,11.13
2022-11-07T15:03:30.066Z,11.20
2022-11-07T15:05:56.477Z,11.25
2022-11-07T15:08:26.470Z,11.19
2022-11-07T15:10:59.680Z,11.18
2022-11-07T15:13:26.253Z,11.10
2022-11-07T15:16:03.352Z,11.18
2022-11-07T15:18:29.719Z,11.27
2022-11-07T15:20:56.875Z,11.31
2022-11-07T15:23:23.175Z,11.36
2022-11-07T15:26:00.744Z,11.28
2022-11-07T15:28:27.828Z,11.26
2022-11-07T15:30:58.161Z,11.17
2022-11-07T15:33:24.524Z,11.10
2022-11-07T15:35:53.045Z,11.07
2022-11-07T15:38:20.488Z,10.82
2022-11-07T15:40:47.190Z,10.84
2022-11-07T15:43:13.527Z,10.74
2022-11-07T15:45:40.075Z,10.79
2022-11-07T15:48:06.906Z,10.68
2022-11-07T15:50:33.308Z,10.77
2022-11-07T15:52:59.688Z,10.87
2022-11-07T15:55:26.044Z,10.67
2022-11-07T15:57:53.104Z,10.57
2022-11-07T16:00:20.383Z,10.70
2022-11-07T16:02:46.883Z,10.69
2022-11-07T16:05:13.566Z,10.77
2022-11-07T16:07:40.286Z,10.72
2022-11-07T16:10:22.051Z,10.79
2022-11-07T16:12:48.736Z,10.56
2022-11-07T16:15:15.582Z,10.72
2022-11-07T16:17:41.920Z,10.77
2022-11-07T16:20:33.345Z,10.71
2022-11-07T16:23:00.295Z,10.57
2022-11-07T16:25:27.123Z,10.69
2022-11-07T16:27:54.128Z,10.68
2022-11-07T16:30:20.566Z,10.77
2022-11-07T16:32:47.074Z,10.71
2022-11-07T16:35:13.538Z,10.78
2022-11-07T16:37:39.943Z,10.75
2022-11-07T16:40:06.768Z,10.67
2022-11-07T16:42:33.106Z,10.73
2022-11-07T16:44:59.535Z,10.77
2022-11-07T16:47:26.045Z,10.67
2022-11-07T16:49:55.975Z,10.77
2022-11-07T16:52:25.210Z,10.61
2022-11-07T16:54:51.607Z,10.64
2022-11-07T16:57:18.022Z,10.76
2022-11-07T16:59:44.597Z,10.72
2022-11-07T17:02:21.384Z,10.73
2022-11-07T17:04:48.243Z,10.74
2022-11-07T17:07:15.082Z,10.73
2022-11-07T17:09:44.404Z,10.58
2022-11-07T17:12:11.951Z,10.55
2022-11-07T17:14:38.300Z,10.56
2022-11-07T17:17:04.814Z,10.63
2022-11-07T17:19:31.232Z,10.59
2022-11-07T17:21:58.470Z,10.60
2022-11-07T17:24:24.803Z,10.56
2022-11-07T17:26:51.152Z,10.54
2022-11-07T17:29:17.477Z,10.51
2022-11-07T17:31:44.198Z,10.47
2022-11-07T17:34:10.786Z,10.58
2022-11-07T17:36:38.514Z,10.62
2022-11-07T17:39:11.084Z,10.62
2022-11-07T17:41:38.119Z,10.68
2022-11-07T17:44:04.580Z,10.76
2022-11-07T17:46:31.713Z,10.81
2022-11-07T17:48:59.228Z,10.86
2022-11-07T17:51:28.498Z,10.76
2022-11-07T17:53:55.386Z,10.81
2022-11-07T17:56:22.398Z,10.85
2022-11-07T17:58:49.253Z,10.94
2022-11-07T18:01:16.379Z,10.91
2022-11-07T18:03:43.392Z,10.93
2022-11-07T18:06:10.068Z,10.94
2022-11-07T18:08:51.773Z,10.99
2022-11-07T18:11:19.479Z,11.16
2022-11-07T18:13:45.840Z,11.15
2022-11-07T18:16:16.096Z,11.24
2022-11-07T18:18:42.573Z,11.25
2022-11-07T18:21:09.046Z,11.16
2022-11-07T18:23:35.710Z,11.21
2022-11-07T18:26:05.735Z,11.20
2022-11-07T18:28:32.322Z,11.24
2022-11-07T18:31:17.547Z,11.20
2022-11-07T18:33:43.983Z,11.31
2022-11-07T18:36:11.235Z,11.25
2022-11-07T18:38:37.740Z,11.31
2022-11-07T18:41:07.767Z,11.25
2022-11-07T18:43:34.340Z,11.27
2022-11-07T18:46:00.668Z,11.25
2022-11-07T18:48:28.384Z,11.27
2022-11-07T18:50:56.970Z,11.27
2022-11-07T18:53:23.600Z,11.28
2022-11-07T18:56:16.482Z,11.29
2022-11-07T18:58:42.934Z,11.27
2022-11-07T19:01:10.820Z,11.31
2022-11-07T19:03:37.490Z,11.29
2022-11-07T19:06:04.310Z,11.30
2022-11-07T19:08:30.872Z,11.28
2022-11-07T19:10:57.830Z,11.29
2022-11-07T19:13:24.442Z,11.22
2022-11-07T19:15:50.805Z,11.21
2022-11-07T19:18:17.626Z,11.26
2022-11-07T19:20:44.336Z,11.25
2022-11-07T19:23:11.632Z,11.28
2022-11-07T19:25:38.445Z,11.18
2022-11-07T19:28:04.860Z,11.17
2022-11-07T19:30:33.242Z,11.18
2022-11-07T19:33:02.081Z,11.20
2022-11-07T19:35:31.474Z,11.24
2022-11-07T19:37:58.051Z,11.25
2022-11-07T19:40:24.499Z,11.29
2022-11-07T19:42:51.516Z,11.16
2022-11-07T19:45:18.714Z,11.23
2022-11-07T19:47:45.301Z,11.16
2022-11-07T19:50:11.802Z,11.14
2022-11-07T19:52:38.159Z,11.19
2022-11-07T19:55:04.942Z,11.20
2022-11-07T19:57:31.527Z,11.16
2022-11-07T19:59:57.864Z,11.18
2022-11-07T20:02:33.058Z,11.18
2022-11-07T20:05:00.157Z,11.17
2022-11-07T20:07:26.483Z,11.18
2022-11-07T20:09:54.796Z,11.22
2022-11-07T20:12:21.195Z,11.26
2022-11-07T20:14:47.584Z,11.24
2022-11-07T20:17:13.944Z,11.22
2022-11-07T20:19:40.319Z,11.24
2022-11-07T20:22:06.642Z,11.23
2022-11-07T20:24:33.019Z,11.27
2022-11-07T20:26:59.372Z,11.23
2022-11-07T20:29:25.685Z,11.11
2022-11-07T20:31:52.098Z,11.16
2022-11-07T20:34:19.008Z,11.15
2022-11-07T20:36:46.655Z,11.20
2022-11-07T20:39:13.038Z,11.19
2022-11-07T20:41:42.345Z,11.14
2022-11-07T20:44:10.189Z,11.13
2022-11-07T20:46:36.904Z,11.10
2022-11-07T20:49:03.977Z,11.05
2022-11-07T20:51:30.357Z,11.14
2022-11-07T20:53:56.746Z,11.09
2022-11-07T20:56:23.518Z,11.13
2022-11-07T20:58:49.859Z,11.10
2022-11-07T21:01:26.413Z,11.04
2022-11-07T21:03:52.853Z,11.01
2022-11-07T21:06:19.219Z,11.10
2022-11-07T21:08:46.901Z,11.06
2022-11-07T21:11:13.266Z,11.01
2022-11-07T21:13:39.678Z,11.08
2022-11-07T21:16:06.116Z,11.20
2022-11-07T21:18:32.441Z,11.11
2022-11-07T21:21:08.439Z,11.03
2022-11-07T21:23:34.789Z,10.99
2022-11-07T21:26:02.253Z,10.98
2022-11-07T21:28:28.720Z,11.02
2022-11-07T21:31:04.671Z,10.90
2022-11-07T21:33:31.014Z,10.94
2022-11-07T21:35:57.429Z,10.94
2022-11-07T21:38:23.817Z,10.94
2022-11-07T21:40:50.222Z,10.98
2022-11-07T21:43:16.763Z,10.98
2022-11-07T21:45:43.255Z,10.96
2022-11-07T21:48:09.691Z,11.00
2022-11-07T21:50:45.008Z,11.01
2022-11-07T21:53:11.549Z,10.93
2022-11-07T21:55:37.928Z,10.94
2022-11-07T21:58:04.311Z,10.98
2022-11-07T22:00:35.772Z,11.02
2022-11-07T22:03:02.737Z,11.01
2022-11-07T22:05:29.064Z,11.01
2022-11-07T22:07:55.447Z,11.02
2022-11-07T22:10:21.772Z,11.15
2022-11-07T22:12:48.105Z,11.13
2022-11-07T22:15:14.439Z,11.15
2022-11-07T22:17:40.799Z,11.14
2022-11-07T22:20:07.371Z,11.06
2022-11-07T22:22:34.443Z,11.10
2022-11-07T22:25:00.771Z,11.07
2022-11-07T22:27:27.095Z,11.11
2022-11-07T22:29:53.525Z,11.07
2022-11-07T22:32:19.838Z,11.05
2022-11-07T22:34:46.189Z,11.06
2022-11-07T22:37:12.547Z,11.06
2022-11-07T22:39:38.882Z,11.06
2022-11-07T22:42:05.287Z,11.02
2022-11-07T22:44:31.689Z,11.07
2022-11-07T22:46:58.261Z,11.09
2022-11-07T22:49:24.613Z,11.10
2022-11-07T22:51:51.192Z,11.16
2022-11-07T22:54:17.586Z,11.09
2022-11-07T22:56:43.907Z,10.96
2022-11-07T22:59:10.399Z,11.02
2022-11-07T23:01:37.512Z,11.02
2022-11-07T23:04:03.974Z,11.00
2022-11-07T23:06:30.392Z,11.06
2022-11-07T23:08:59.929Z,11.04
2022-11-07T23:11:45.931Z,10.96
2022-11-07T23:14:13.431Z,11.01
2022-11-07T23:16:40.538Z,11.01
2022-11-07T23:19:07.678Z,11.01
2022-11-07T23:21:34.051Z,11.01
2022-11-07T23:24:00.530Z,10.93
2022-11-07T23:26:33.377Z,10.89
2022-11-07T23:29:09.036Z,10.89
2022-11-07T23:31:36.651Z,10.89
2022-11-07T23:34:03.023Z,10.92
2022-11-07T23:36:29.345Z,10.87
2022-11-07T23:38:55.685Z,10.87
2022-11-07T23:41:22.042Z,10.91
2022-11-07T23:43:52.238Z,10.84
2022-11-07T23:46:37.554Z,10.81
2022-11-07T23:49:23.095Z,10.85
2022-11-07T23:51:49.419Z,10.82
2022-11-07T23:54:34.688Z,10.85
2022-11-07T23:57:01.032Z,10.89
2022-11-07T23:59:46.234Z,10.79
